createdAt,value
2023-03-06T00:02:34.791Z,96642.66
2023-03-06T00:06:37.432Z,96631.50
2023-03-06T00:10:41.684Z,96614.78
2023-03-06T00:14:44.324Z,96614.59
2023-03-06T00:18:47.745Z,96621.22
2023-03-06T00:22:51.078Z,96612.25
2023-03-06T00:26:55.085Z,96620.38
2023-03-06T00:30:57.722Z,96614.25
2023-03-06T00:35:00.389Z,96601.75
2023-03-06T00:39:02.994Z,96595.13
2023-03-06T00:43:06.980Z,96589.44
2023-03-06T00:47:09.979Z,96585.59
2023-03-06T00:51:14.031Z,96582.13
2023-03-06T00:55:16.986Z,96596.22
2023-03-06T00:59:20.923Z,96586.78
2023-03-06T01:03:23.606Z,96587.28
2023-03-06T01:07:27.282Z,96566.81
2023-03-06T01:11:30.014Z,96564.47
2023-03-06T01:15:33.965Z,96563.63
2023-03-06T01:19:36.635Z,96549.19
2023-03-06T01:23:39.310Z,96546.53
2023-03-06T01:27:41.937Z,96546.53
2023-03-06T01:31:45.992Z,96525.44
2023-03-06T01:35:48.727Z,96525.06
2023-03-06T01:39:51.416Z,96522.41
2023-03-06T01:43:54.118Z,96528.09
2023-03-06T01:47:58.077Z,96512.94
2023-03-06T01:52:04.758Z,96518.09
2023-03-06T01:56:08.692Z,96514.78
2023-03-06T02:00:14.259Z,96499.34
2023-03-06T02:04:18.993Z,96496.50
2023-03-06T02:08:24.468Z,96495.56
2023-03-06T02:12:27.673Z,96489.75
2023-03-06T02:16:34.135Z,96487.09
2023-03-06T02:20:45.110Z,96480.09
2023-03-06T02:24:55.079Z,96481.94
2023-03-06T02:28:59.380Z,96466.69
2023-03-06T02:33:02.717Z,96468.53
2023-03-06T02:37:08.779Z,96470.72
2023-03-06T02:41:11.471Z,96460.41
2023-03-06T02:45:18.412Z,96462.09
2023-03-06T02:49:21.110Z,96454.28
2023-03-06T02:53:23.862Z,96451.13
2023-03-06T02:57:26.449Z,96445.81
2023-03-06T03:01:30.525Z,96438.53
2023-03-06T03:05:33.673Z,96437.25
2023-03-06T03:09:37.251Z,96446.69
2023-03-06T03:13:40.309Z,96435.75
2023-03-06T03:17:46.842Z,96433.59
2023-03-06T03:21:49.449Z,96434.78
2023-03-06T03:25:52.128Z,96421.38
2023-03-06T03:29:57.484Z,96420.03
2023-03-06T03:34:01.724Z,96423.56
2023-03-06T03:38:04.512Z,96421.75
2023-03-06T03:42:07.724Z,96411.19
2023-03-06T03:46:10.901Z,96405.53
2023-03-06T03:50:14.912Z,96400.56
2023-03-06T03:54:18.003Z,96388.63
2023-03-06T03:58:21.140Z,96400.56
2023-03-06T04:02:25.332Z,96396.44
2023-03-06T04:06:30.093Z,96389.00
2023-03-06T04:10:34.530Z,96381.19
2023-03-06T04:14:37.742Z,96395.94
2023-03-06T04:18:40.759Z,96377.06
2023-03-06T04:22:44.753Z,96385.19
2023-03-06T04:26:48.022Z,96380.53
2023-03-06T04:30:50.735Z,96382.53
2023-03-06T04:34:53.595Z,96382.00
2023-03-06T04:38:58.850Z,96360.28
2023-03-06T04:43:02.612Z,96370.72
2023-03-06T04:47:05.912Z,96361.94
2023-03-06T04:51:08.710Z,96353.16
2023-03-06T04:55:14.681Z,96352.78
2023-03-06T04:59:17.514Z,96352.47
2023-03-06T05:03:21.262Z,96341.34
2023-03-06T05:07:23.873Z,96334.84
2023-03-06T05:11:28.140Z,96344.81
2023-03-06T05:15:30.738Z,96337.03
2023-03-06T05:19:33.373Z,96337.50
2023-03-06T05:23:38.558Z,96337.19
2023-03-06T05:27:42.836Z,96341.47
2023-03-06T05:31:45.727Z,96342.31
2023-03-06T05:35:49.651Z,96335.34
2023-03-06T05:39:52.836Z,96327.53
2023-03-06T05:43:56.992Z,96323.88
2023-03-06T05:47:59.599Z,96320.06
2023-03-06T05:52:04.008Z,96320.53
2023-03-06T05:56:09.794Z,96333.97
2023-03-06T06:00:15.483Z,96334.34
2023-03-06T06:04:18.070Z,96338.31
2023-03-06T06:08:22.093Z,96327.31
2023-03-06T06:12:24.924Z,96335.28
2023-03-06T06:16:29.211Z,96331.66
2023-03-06T06:20:32.485Z,96337.88
2023-03-06T06:24:35.417Z,96332.78
2023-03-06T06:28:38.591Z,96340.03
2023-03-06T06:32:42.926Z,96336.69
2023-03-06T06:36:45.710Z,96334.84
2023-03-06T06:41:18.082Z,96341.28
2023-03-06T06:45:12.503Z,96336.63
2023-03-06T06:49:16.842Z,96344.44
2023-03-06T06:53:19.652Z,96335.63
2023-03-06T06:57:22.765Z,96341.22
2023-03-06T07:01:25.475Z,96339.22
2023-03-06T07:05:29.502Z,96338.06
2023-03-06T07:09:32.245Z,96340.66
2023-03-06T07:13:35.363Z,96340.09
2023-03-06T07:17:38.137Z,96343.97
2023-03-06T07:21:42.607Z,96338.69
2023-03-06T07:25:45.332Z,96339.28
2023-03-06T07:29:48.590Z,96335.06
2023-03-06T07:33:51.890Z,96336.25
2023-03-06T07:37:55.996Z,96338.75
2023-03-06T07:41:58.873Z,96339.41
2023-03-06T07:46:01.940Z,96333.81
2023-03-06T07:50:06.990Z,96348.06
2023-03-06T07:54:12.033Z,96350.22
2023-03-06T07:58:14.712Z,96350.00
2023-03-06T08:02:17.456Z,96359.75
2023-03-06T08:06:22.695Z,96359.91
2023-03-06T08:10:26.942Z,96368.50
2023-03-06T08:14:29.737Z,96359.44
2023-03-06T08:18:32.569Z,96363.75
2023-03-06T08:22:35.418Z,96361.94
2023-03-06T08:26:39.753Z,96375.06
2023-03-06T08:30:42.676Z,96370.28
2023-03-06T08:34:46.018Z,96374.25
2023-03-06T08:38:49.029Z,96369.09
2023-03-06T08:42:53.093Z,96378.13
2023-03-06T08:46:55.993Z,96365.47
2023-03-06T08:50:58.979Z,96374.88
2023-03-06T08:55:03.684Z,96377.13
2023-03-06T08:59:10.502Z,96378.19
2023-03-06T09:03:13.109Z,96376.50
2023-03-06T09:07:15.977Z,96371.72
2023-03-06T09:11:18.826Z,96370.78
2023-03-06T09:15:24.236Z,96367.44
2023-03-06T09:19:27.025Z,96371.06
2023-03-06T09:23:29.745Z,96365.09
2023-03-06T09:27:32.920Z,96367.13
2023-03-06T09:31:37.057Z,96367.69
2023-03-06T09:35:44.432Z,96368.78
2023-03-06T09:39:47.233Z,96364.19
2023-03-06T09:43:53.392Z,96358.31
2023-03-06T09:48:01.760Z,96360.41
2023-03-06T09:52:16.959Z,96349.47
2023-03-06T09:56:23.975Z,96362.41
2023-03-06T10:00:33.979Z,96365.19
2023-03-06T10:04:42.683Z,96355.03
2023-03-06T10:08:50.265Z,96347.19
2023-03-06T10:13:04.175Z,96350.00
2023-03-06T10:17:12.037Z,96336.97
2023-03-06T10:21:31.348Z,96338.72
2023-03-06T10:25:36.842Z,96335.28
2023-03-06T10:30:01.701Z,96316.81
2023-03-06T10:34:21.134Z,96317.50
2023-03-06T10:38:27.162Z,96316.50
2023-03-06T10:42:29.918Z,96316.31
2023-03-06T10:46:35.491Z,96315.69
2023-03-06T10:50:38.293Z,96317.28
2023-03-06T10:54:45.982Z,96318.22
2023-03-06T10:58:48.668Z,96318.53
2023-03-06T11:03:07.213Z,96313.34
2023-03-06T11:07:16.948Z,96302.66
2023-03-06T11:11:36.884Z,96302.03
2023-03-06T11:15:40.446Z,96303.88
2023-03-06T11:19:43.419Z,96301.84
2023-03-06T11:23:47.860Z,96300.38
2023-03-06T11:28:00.516Z,96303.44
2023-03-06T11:32:10.613Z,96300.13
2023-03-06T11:36:17.906Z,96311.75
2023-03-06T11:40:27.583Z,96308.34
2023-03-06T11:44:45.211Z,96306.06
2023-03-06T11:48:53.537Z,96296.63
2023-03-06T11:53:00.901Z,96288.19
2023-03-06T11:57:09.057Z,96276.50
2023-03-06T12:01:24.330Z,96275.31
2023-03-06T12:05:38.819Z,96272.53
2023-03-06T12:09:47.743Z,96260.94
2023-03-06T12:14:18.866Z,96261.34
2023-03-06T12:18:36.078Z,96259.06
2023-03-06T12:22:58.043Z,96259.88
2023-03-06T12:27:20.913Z,96244.84
2023-03-06T12:31:41.409Z,96235.81
2023-03-06T12:35:57.813Z,96239.28
2023-03-06T12:40:44.641Z,96224.25
2023-03-06T12:45:10.922Z,96225.81
2023-03-06T12:49:31.433Z,96225.72
2023-03-06T12:53:37.890Z,96228.53
2023-03-06T12:57:41.723Z,96228.22
2023-03-06T13:01:59.977Z,96222.34
2023-03-06T13:06:14.320Z,96220.31
2023-03-06T13:10:23.880Z,96211.41
2023-03-06T13:14:29.400Z,96215.50
2023-03-06T13:18:51.871Z,96214.59
2023-03-06T13:22:54.716Z,96222.03
2023-03-06T13:27:07.986Z,96222.03
2023-03-06T13:31:18.321Z,96239.31
2023-03-06T13:35:52.465Z,96248.41
2023-03-06T13:40:27.185Z,96245.78
2023-03-06T13:44:43.988Z,96246.13
2023-03-06T13:48:47.894Z,96245.59
2023-03-06T13:53:06.240Z,96244.38
2023-03-06T13:57:24.801Z,96241.94
2023-03-06T14:01:40.433Z,96243.50
2023-03-06T14:05:44.392Z,96251.34
2023-03-06T14:09:49.132Z,96255.72
2023-03-06T14:13:55.344Z,96270.31
2023-03-06T14:18:02.593Z,96268.34
2023-03-06T14:22:07.047Z,96267.84
2023-03-06T14:26:15.595Z,96268.50
2023-03-06T14:30:22.572Z,96256.63
2023-03-06T14:34:30.156Z,96251.03
2023-03-06T14:38:37.582Z,96248.56
2023-03-06T14:42:40.340Z,96245.69
2023-03-06T14:46:43.071Z,96252.88
2023-03-06T14:50:51.295Z,96236.56
2023-03-06T14:54:54.132Z,96235.38
2023-03-06T14:59:00.463Z,96234.56
2023-03-06T15:03:07.646Z,96236.75
2023-03-06T15:07:16.632Z,96232.22
2023-03-06T15:11:19.441Z,96238.16
2023-03-06T15:15:28.093Z,96232.50
2023-03-06T15:19:41.326Z,96235.63
2023-03-06T15:23:47.762Z,96231.34
2023-03-06T15:27:52.768Z,96236.47
2023-03-06T15:32:14.341Z,96229.75
2023-03-06T15:36:25.029Z,96229.63
2023-03-06T15:40:31.874Z,96221.22
2023-03-06T15:44:34.661Z,96225.78
2023-03-06T15:48:37.359Z,96237.16
2023-03-06T15:52:40.779Z,96225.06
2023-03-06T15:56:47.804Z,96220.19
2023-03-06T16:00:50.795Z,96207.66
2023-03-06T16:04:54.775Z,96214.72
2023-03-06T16:08:57.580Z,96215.13
2023-03-06T16:13:06.219Z,96211.81
2023-03-06T16:17:10.787Z,96213.88
2023-03-06T16:21:13.727Z,96209.91
2023-03-06T16:25:17.744Z,96222.25
2023-03-06T16:29:23.649Z,96222.25
2023-03-06T16:33:26.452Z,96230.28
2023-03-06T16:37:29.481Z,96226.59
2023-03-06T16:41:32.607Z,96227.59
2023-03-06T16:45:40.740Z,96226.13
2023-03-06T16:49:43.554Z,96230.00
2023-03-06T16:53:47.048Z,96234.72
2023-03-06T16:57:49.787Z,96236.88
2023-03-06T17:01:53.970Z,96230.47
2023-03-06T17:05:56.789Z,96223.19
2023-03-06T17:09:59.526Z,96234.44
2023-03-06T17:14:02.895Z,96239.28
2023-03-06T17:18:07.354Z,96241.72
2023-03-06T17:22:10.005Z,96249.94
2023-03-06T17:26:14.569Z,96259.66
2023-03-06T17:30:17.508Z,96262.38
2023-03-06T17:34:24.225Z,96256.69
2023-03-06T17:38:27.752Z,96269.63
2023-03-06T17:42:30.626Z,96277.56
2023-03-06T17:46:34.666Z,96273.38
2023-03-06T17:50:38.845Z,96273.31
2023-03-06T17:54:41.661Z,96281.50
2023-03-06T17:58:44.368Z,96284.63
2023-03-06T18:02:47.040Z,96288.25
2023-03-06T18:06:51.148Z,96280.63
2023-03-06T18:10:59.277Z,96302.97
2023-03-06T18:15:01.998Z,96292.69
2023-03-06T18:19:04.762Z,96288.09
2023-03-06T18:23:09.004Z,96292.16
2023-03-06T18:27:11.884Z,96303.41
2023-03-06T18:31:16.997Z,96301.69
2023-03-06T18:35:19.750Z,96304.25
2023-03-06T18:39:23.801Z,96302.66
2023-03-06T18:43:26.511Z,96298.56
2023-03-06T18:47:29.271Z,96301.56
2023-03-06T18:51:32.481Z,96297.31
2023-03-06T18:55:36.446Z,96306.28
2023-03-06T18:59:39.298Z,96292.31
2023-03-06T19:03:41.926Z,96307.72
2023-03-06T19:07:44.675Z,96313.06
2023-03-06T19:11:48.670Z,96311.75
2023-03-06T19:15:51.259Z,96319.56
2023-03-06T19:19:55.052Z,96311.09
2023-03-06T19:23:58.217Z,96314.78
2023-03-06T19:28:02.266Z,96317.66
2023-03-06T19:32:05.197Z,96311.47
2023-03-06T19:36:10.504Z,96302.19
2023-03-06T19:40:13.936Z,96308.00
2023-03-06T19:44:17.984Z,96309.19
2023-03-06T19:48:22.661Z,96310.59
2023-03-06T19:52:25.477Z,96312.81
2023-03-06T19:56:31.867Z,96308.03
2023-03-06T20:00:36.129Z,96314.38
2023-03-06T20:04:39.030Z,96322.56
2023-03-06T20:08:41.954Z,96317.41
2023-03-06T20:12:44.653Z,96313.75
2023-03-06T20:16:48.748Z,96324.03
2023-03-06T20:20:59.634Z,96317.88
2023-03-06T20:25:02.940Z,96322.38
2023-03-06T20:29:06.606Z,96312.94
2023-03-06T20:33:10.806Z,96305.75
2023-03-06T20:37:13.601Z,96318.44
2023-03-06T20:41:17.067Z,96309.00
2023-03-06T20:45:20.013Z,96318.81
2023-03-06T20:49:26.769Z,96313.88
2023-03-06T20:53:30.208Z,96306.41
2023-03-06T20:57:34.656Z,96315.91
2023-03-06T21:01:41.293Z,96304.78
2023-03-06T21:05:47.103Z,96296.50
2023-03-06T21:09:49.908Z,96302.31
2023-03-06T21:13:53.579Z,96306.00
2023-03-06T21:17:56.401Z,96300.38
2023-03-06T21:22:00.505Z,96298.09
2023-03-06T21:26:03.389Z,96297.09
2023-03-06T21:30:07.616Z,96291.75
2023-03-06T21:34:11.452Z,96290.09
2023-03-06T21:38:15.731Z,96286.78
2023-03-06T21:42:18.467Z,96293.31
2023-03-06T21:46:21.177Z,96280.56
2023-03-06T21:50:24.976Z,96282.59
2023-03-06T21:54:29.366Z,96279.94
2023-03-06T21:58:32.436Z,96274.16
2023-03-06T22:02:35.312Z,96280.31
2023-03-06T22:06:39.710Z,96276.81
2023-03-06T22:10:43.829Z,96280.94
2023-03-06T22:14:46.842Z,96277.44
2023-03-06T22:18:52.444Z,96265.97
2023-03-06T22:22:55.181Z,96265.78
2023-03-06T22:26:59.433Z,96276.63
2023-03-06T22:31:05.624Z,96253.38
2023-03-06T22:35:09.180Z,96244.56
2023-03-06T22:39:13.780Z,96252.19
2023-03-06T22:43:20.020Z,96250.34
2023-03-06T22:47:22.731Z,96249.72
2023-03-06T22:51:26.197Z,96259.34
2023-03-06T22:55:28.956Z,96253.03
2023-03-06T22:59:33.103Z,96259.97
2023-03-06T23:03:36.698Z,96245.38
2023-03-06T23:07:39.767Z,96242.09
2023-03-06T23:11:42.921Z,96238.97
2023-03-06T23:15:47.030Z,96242.47
2023-03-06T23:19:50.204Z,96238.34
2023-03-06T23:23:54.878Z,96234.84
2023-03-06T23:27:57.701Z,96232.19
2023-03-06T23:32:01.856Z,96240.00
2023-03-06T23:36:05.356Z,96233.22
2023-03-06T23:40:10.025Z,96229.69
2023-03-06T23:44:12.702Z,96234.03
2023-03-06T23:48:16.744Z,96235.50
2023-03-06T23:52:19.527Z,96232.19
2023-03-06T23:56:22.462Z,96236.69
